O' Neill, Nebraska
Current Conditions -  °F | °C
As of 7:55 AM on Thursday 23 Oct 2014 (Local Time) from KONL Reporting Station
Moderate Fog Moderate Fog  
Wind Chill: 34°   Ceiling: 200
Heat Index: 38°   Visibility: 0.25mi
Dew Point: 38°   Wind: 5mph
Humidity: 100%   Direction: 220°SW
Pressure: 30.04"   Gusts: NA
Location:  42.6164°N, 98.6183°W
Report Text: KONL 231255Z AUTO 22004KT 1/4SM FG VV002 03/03 A3004 RMK AO2 T00310031
Loading
Personal Weather Stations






























Interactive Weather Map
Tropical Storm Tracking
New forecast layout! Learn more

10-Day Weather Forecast

Advertisements
Track Severe Weather on mobile